Terminal Aerodrome Forecast
Issued by NWS Charleston, WV

Current Version | Previous Version | Graphics & Text | Print | Product List | Glossary On
Versions: 1 2 3 4 5 6 7 8 9 10 11 12 13 14 15 16 17 18 19 20 21 22 23 24 25 26 27 28
000
FTUS41 KRLX 030100 AAA
TAFEKN
TAF AMD
KEKN 030104Z 0301/0324 VRB03KT P6SM SCT040 BKN090
     FM030300 00000KT P6SM BKN040
     FM030800 00000KT P6SM BKN025
     FM031200 00000KT P6SM BKN020
     FM031700 29004KT P6SM SCT035
     FM032100 30005KT P6SM SKC=

USA.gov is the U.S. government's official web portal to all federal, state and local government web resources and services.